createdAt,value
2018-03-07T00:00:46.607Z,9.00
2018-03-07T00:03:18.298Z,9.10
2018-03-07T00:05:49.158Z,9.00
2018-03-07T00:08:20.283Z,8.90
2018-03-07T00:10:50.746Z,9.00
2018-03-07T00:13:22.410Z,9.00
2018-03-07T00:15:52.616Z,8.90
2018-03-07T00:18:24.613Z,8.90
2018-03-07T00:20:54.482Z,8.90
2018-03-07T00:23:26.655Z,8.90
2018-03-07T00:25:56.772Z,8.90
2018-03-07T00:28:28.745Z,8.80
2018-03-07T00:30:58.932Z,8.90
2018-03-07T00:33:30.838Z,8.90
2018-03-07T00:36:01.157Z,8.90
2018-03-07T00:38:33.552Z,8.90
2018-03-07T00:41:04.045Z,8.90
2018-03-07T00:43:35.017Z,8.80
2018-03-07T00:46:05.096Z,8.80
2018-03-07T00:48:37.081Z,8.70
2018-03-07T00:51:07.151Z,8.70
2018-03-07T00:53:39.961Z,8.70
2018-03-07T00:56:09.972Z,8.70
2018-03-07T00:58:41.929Z,8.70
2018-03-07T01:01:12.405Z,8.70
2018-03-07T01:03:45.072Z,8.60
2018-03-07T01:06:15.579Z,8.60
2018-03-07T01:08:49.076Z,8.60
2018-03-07T01:11:19.360Z,8.60
2018-03-07T01:13:50.557Z,8.60
2018-03-07T01:16:20.743Z,8.60
2018-03-07T01:18:54.780Z,8.60
2018-03-07T01:21:25.254Z,8.60
2018-03-07T01:23:56.212Z,8.60
2018-03-07T01:26:26.244Z,8.50
2018-03-07T01:28:59.594Z,8.50
2018-03-07T01:31:30.288Z,8.50
2018-03-07T01:34:02.385Z,8.60
2018-03-07T01:36:32.777Z,8.50
2018-03-07T01:39:06.122Z,8.40
2018-03-07T01:41:37.188Z,8.50
2018-03-07T01:44:08.822Z,8.50
2018-03-07T01:46:39.762Z,8.50
2018-03-07T01:49:12.600Z,8.50
2018-03-07T01:51:51.505Z,8.50
2018-03-07T01:54:21.802Z,8.50
2018-03-07T01:56:52.546Z,8.50
2018-03-07T01:59:22.794Z,8.50
2018-03-07T02:01:53.259Z,8.50
2018-03-07T02:04:24.101Z,8.50
2018-03-07T02:06:54.937Z,8.40
2018-03-07T02:09:26.602Z,8.30
2018-03-07T02:11:56.711Z,8.30
2018-03-07T02:14:27.295Z,8.20
2018-03-07T02:16:57.926Z,8.20
2018-03-07T02:19:28.442Z,8.20
2018-03-07T02:21:59.060Z,8.20
2018-03-07T02:24:29.533Z,8.20
2018-03-07T02:26:59.608Z,8.10
2018-03-07T02:29:29.787Z,8.00
2018-03-07T02:32:01.268Z,7.90
2018-03-07T02:34:31.296Z,7.90
2018-03-07T02:37:01.667Z,7.80
2018-03-07T02:39:33.075Z,7.70
2018-03-07T02:42:03.241Z,7.70
2018-03-07T02:44:36.439Z,7.60
2018-03-07T02:47:07.057Z,7.50
2018-03-07T02:49:37.913Z,7.50
2018-03-07T02:52:09.805Z,7.40
2018-03-07T02:54:40.225Z,7.40
2018-03-07T02:57:10.246Z,7.40
2018-03-07T02:59:43.080Z,7.30
2018-03-07T03:02:14.303Z,7.20
2018-03-07T03:04:44.590Z,7.20
2018-03-07T03:07:14.378Z,7.20
2018-03-07T03:09:48.007Z,7.10
2018-03-07T03:12:17.996Z,7.10
2018-03-07T03:14:51.488Z,7.00
2018-03-07T03:17:21.796Z,6.90
2018-03-07T03:19:52.923Z,6.90
2018-03-07T03:22:23.298Z,6.90
2018-03-07T03:24:55.704Z,6.80
2018-03-07T03:27:25.529Z,6.90
2018-03-07T03:30:02.319Z,6.90
2018-03-07T03:32:32.940Z,6.80
2018-03-07T03:35:04.642Z,6.80
2018-03-07T03:37:34.535Z,6.80
2018-03-07T03:40:09.778Z,6.80
2018-03-07T03:42:39.658Z,6.80
2018-03-07T03:45:14.096Z,6.70
2018-03-07T03:47:45.129Z,6.80
2018-03-07T03:50:17.293Z,6.80
2018-03-07T03:52:47.140Z,6.80
2018-03-07T03:55:20.126Z,6.70
2018-03-07T03:57:49.758Z,6.80
2018-03-07T04:00:22.534Z,6.80
2018-03-07T04:02:56.817Z,6.80
2018-03-07T04:05:26.534Z,6.80
2018-03-07T04:07:56.182Z,6.90
2018-03-07T04:10:25.994Z,6.80
2018-03-07T04:12:55.922Z,6.80
2018-03-07T04:15:28.828Z,6.90
2018-03-07T04:17:59.742Z,7.00
2018-03-07T04:20:30.238Z,6.90
2018-03-07T04:23:00.005Z,6.90
2018-03-07T04:25:32.850Z,6.90
2018-03-07T04:28:02.450Z,6.90
2018-03-07T04:30:35.694Z,6.90
2018-03-07T04:33:05.220Z,6.90
2018-03-07T04:35:36.983Z,7.00
2018-03-07T04:38:06.938Z,7.00
2018-03-07T04:40:40.175Z,6.90
2018-03-07T04:43:09.532Z,7.00
2018-03-07T04:45:42.877Z,6.90
2018-03-07T04:48:12.930Z,6.90
2018-03-07T04:50:44.845Z,6.90
2018-03-07T04:53:14.944Z,7.00
2018-03-07T04:55:48.451Z,7.00
2018-03-07T04:58:18.994Z,6.90
2018-03-07T05:00:52.506Z,6.90
2018-03-07T05:03:22.857Z,6.90
2018-03-07T05:05:55.776Z,6.90
2018-03-07T05:08:26.625Z,6.80
2018-03-07T05:11:00.391Z,6.80
2018-03-07T05:13:30.709Z,6.80
2018-03-07T05:16:01.984Z,6.80
2018-03-07T05:18:32.953Z,6.80
2018-03-07T05:21:05.177Z,6.80
2018-03-07T05:23:35.352Z,6.80
2018-03-07T05:26:07.402Z,6.80
2018-03-07T05:28:37.673Z,6.80
2018-03-07T05:31:11.882Z,6.90
2018-03-07T05:33:42.062Z,6.90
2018-03-07T05:36:14.814Z,6.90
2018-03-07T05:38:45.511Z,6.90
2018-03-07T05:41:16.424Z,6.90
2018-03-07T05:43:47.224Z,7.00
2018-03-07T05:46:18.555Z,7.00
2018-03-07T05:48:49.929Z,7.00
2018-03-07T05:51:20.756Z,7.00
2018-03-07T05:53:50.967Z,7.00
2018-03-07T05:56:23.289Z,7.00
2018-03-07T05:58:53.372Z,6.90
2018-03-07T06:01:25.556Z,7.00
2018-03-07T06:03:55.792Z,7.00
2018-03-07T06:06:27.313Z,7.00
2018-03-07T06:08:57.789Z,7.00
2018-03-07T06:11:29.993Z,7.00
2018-03-07T06:14:00.796Z,7.00
2018-03-07T06:16:32.979Z,7.00
2018-03-07T06:19:03.968Z,7.10
2018-03-07T06:21:34.383Z,7.10
2018-03-07T06:24:04.898Z,7.10
2018-03-07T06:26:38.716Z,7.20
2018-03-07T06:29:08.808Z,7.20
2018-03-07T06:31:39.880Z,7.30
2018-03-07T06:34:10.160Z,7.30
2018-03-07T06:36:42.616Z,7.40
2018-03-07T06:39:12.963Z,7.40
2018-03-07T06:41:45.345Z,7.60
2018-03-07T06:44:16.151Z,7.60
2018-03-07T06:46:49.804Z,7.60
2018-03-07T06:49:20.360Z,7.60
2018-03-07T06:51:52.478Z,7.60
2018-03-07T06:54:22.580Z,7.70
2018-03-07T06:56:53.799Z,7.70
2018-03-07T06:59:23.778Z,7.60
2018-03-07T07:01:54.807Z,7.70
2018-03-07T07:04:25.077Z,7.90
2018-03-07T07:06:58.640Z,7.90
2018-03-07T07:09:29.390Z,8.00
2018-03-07T07:12:03.185Z,8.00
2018-03-07T07:14:34.091Z,8.20
2018-03-07T07:17:04.297Z,8.10
2018-03-07T07:19:35.326Z,8.20
2018-03-07T07:22:07.404Z,8.20
2018-03-07T07:24:37.793Z,8.30
2018-03-07T07:27:10.284Z,8.30
2018-03-07T07:29:40.082Z,8.40
2018-03-07T07:32:17.057Z,8.40
2018-03-07T07:34:46.986Z,8.30
2018-03-07T07:37:17.087Z,8.10
2018-03-07T07:39:48.043Z,8.10
2018-03-07T07:42:17.811Z,8.10
2018-03-07T07:44:47.749Z,8.20
2018-03-07T07:47:20.333Z,8.20
2018-03-07T07:49:50.390Z,8.20
2018-03-07T07:52:21.632Z,8.20
2018-03-07T07:54:52.503Z,8.30
2018-03-07T07:57:24.187Z,8.30
2018-03-07T07:59:54.401Z,8.30
2018-03-07T08:02:25.287Z,8.30
2018-03-07T08:04:56.501Z,8.30
2018-03-07T08:07:26.931Z,8.30
2018-03-07T08:09:57.818Z,8.20
2018-03-07T08:12:29.789Z,8.10
2018-03-07T08:14:59.559Z,8.10
2018-03-07T08:17:33.223Z,8.10
2018-03-07T08:20:04.427Z,8.20
2018-03-07T08:22:34.454Z,8.30
2018-03-07T08:25:04.327Z,8.30
2018-03-07T08:27:36.552Z,8.30
2018-03-07T08:30:06.595Z,8.30
2018-03-07T08:32:40.111Z,8.20
2018-03-07T08:35:11.167Z,8.20
2018-03-07T08:37:42.034Z,8.20
2018-03-07T08:40:12.625Z,8.30
2018-03-07T08:42:43.640Z,8.30
2018-03-07T08:45:14.207Z,8.40
2018-03-07T08:47:47.979Z,8.40
2018-03-07T08:50:18.199Z,8.40
2018-03-07T08:52:51.619Z,8.50
2018-03-07T08:55:21.183Z,8.50
2018-03-07T08:57:52.372Z,8.50
2018-03-07T09:00:22.225Z,8.50
2018-03-07T09:02:59.914Z,8.50
2018-03-07T09:05:29.573Z,8.50
2018-03-07T09:08:01.001Z,8.60
2018-03-07T09:10:30.708Z,8.60
2018-03-07T09:13:04.733Z,8.70
2018-03-07T09:15:35.169Z,8.90
2018-03-07T09:18:05.838Z,8.90
2018-03-07T09:20:35.839Z,8.90
2018-03-07T09:23:08.460Z,8.90
2018-03-07T09:25:38.834Z,9.00
2018-03-07T09:28:16.653Z,9.10
2018-03-07T09:30:46.286Z,9.10
2018-03-07T09:33:16.088Z,9.10
2018-03-07T09:35:46.714Z,9.20
2018-03-07T09:38:16.580Z,9.20
2018-03-07T09:40:47.057Z,8.90
2018-03-07T09:43:17.903Z,8.90
2018-03-07T09:45:47.514Z,9.10
2018-03-07T09:48:22.091Z,9.20
2018-03-07T09:50:52.146Z,9.20
2018-03-07T09:53:22.067Z,9.20
2018-03-07T09:55:52.128Z,9.10
2018-03-07T09:58:23.771Z,9.00
2018-03-07T10:00:54.373Z,9.20
2018-03-07T10:03:25.795Z,9.10
2018-03-07T10:05:55.598Z,9.20
2018-03-07T10:08:28.948Z,9.20
2018-03-07T10:10:58.739Z,9.20
2018-03-07T10:13:30.026Z,9.10
2018-03-07T10:16:00.097Z,9.00
2018-03-07T10:18:33.771Z,9.10
2018-03-07T10:21:04.231Z,9.30
2018-03-07T10:23:35.788Z,9.30
2018-03-07T10:26:05.765Z,9.30
2018-03-07T10:28:39.761Z,9.50
2018-03-07T10:31:09.789Z,9.40
2018-03-07T10:33:41.647Z,9.60
2018-03-07T10:36:11.604Z,9.50
2018-03-07T10:38:44.659Z,9.40
2018-03-07T10:41:15.347Z,9.50
2018-03-07T10:43:47.137Z,9.40
2018-03-07T10:46:18.212Z,9.40
2018-03-07T10:48:50.318Z,9.50
2018-03-07T10:51:20.592Z,9.40
2018-03-07T10:53:52.614Z,9.30
2018-03-07T10:56:23.205Z,9.40
2018-03-07T10:59:03.221Z,9.40
2018-03-07T11:01:33.396Z,9.50
2018-03-07T11:04:03.380Z,9.50
2018-03-07T11:06:33.353Z,9.50
2018-03-07T11:09:04.457Z,9.60
2018-03-07T11:11:36.035Z,9.60
2018-03-07T11:14:05.901Z,9.60
2018-03-07T11:16:38.521Z,9.60
2018-03-07T11:19:08.666Z,9.60
2018-03-07T11:21:38.959Z,9.60
2018-03-07T11:24:10.285Z,9.60
2018-03-07T11:26:40.949Z,9.40
2018-03-07T11:29:14.851Z,9.40
2018-03-07T11:31:45.402Z,9.40
2018-03-07T11:34:16.526Z,9.50
2018-03-07T11:36:46.357Z,9.50
2018-03-07T11:39:18.287Z,9.50
2018-03-07T11:41:49.117Z,9.50
2018-03-07T11:44:18.915Z,9.40
2018-03-07T11:46:49.252Z,9.70
2018-03-07T11:49:21.499Z,9.70
2018-03-07T11:51:51.165Z,9.70
2018-03-07T11:54:22.788Z,9.80
2018-03-07T11:56:53.715Z,9.80
2018-03-07T11:59:25.931Z,9.70
2018-03-07T12:01:55.511Z,9.70
2018-03-07T12:04:27.868Z,9.50
2018-03-07T12:06:58.355Z,9.50
2018-03-07T12:09:28.515Z,9.40
2018-03-07T12:11:59.259Z,9.40
2018-03-07T12:14:30.835Z,9.40
2018-03-07T12:17:00.428Z,9.40
2018-03-07T12:19:33.679Z,9.40
2018-03-07T12:22:04.076Z,9.40
2018-03-07T12:24:35.243Z,9.40
2018-03-07T12:27:05.986Z,9.30
2018-03-07T12:29:39.770Z,9.30
2018-03-07T12:32:09.452Z,9.30
2018-03-07T12:34:41.115Z,9.40
2018-03-07T12:37:11.031Z,9.50
2018-03-07T12:39:44.485Z,9.50
2018-03-07T12:42:14.382Z,9.60
2018-03-07T12:44:46.228Z,9.70
2018-03-07T12:47:15.898Z,9.70
2018-03-07T12:49:48.397Z,9.60
2018-03-07T12:52:18.015Z,9.80
2018-03-07T12:54:54.981Z,9.80
2018-03-07T12:57:24.977Z,9.80
2018-03-07T12:59:56.434Z,9.90
2018-03-07T13:02:26.204Z,9.80
2018-03-07T13:05:03.478Z,9.90
2018-03-07T13:07:33.173Z,9.90
2018-03-07T13:10:03.657Z,9.90
2018-03-07T13:12:33.335Z,9.90
2018-03-07T13:15:08.134Z,9.90
2018-03-07T13:17:38.596Z,10.00
2018-03-07T13:20:12.067Z,9.90
2018-03-07T13:22:42.594Z,10.00
2018-03-07T13:25:14.111Z,10.00
2018-03-07T13:27:44.999Z,9.90
2018-03-07T13:30:15.779Z,10.00
2018-03-07T13:32:45.468Z,10.00
2018-03-07T13:35:17.713Z,9.90
2018-03-07T13:37:49.422Z,10.00
2018-03-07T13:40:19.227Z,10.00
2018-03-07T13:42:49.135Z,10.00
2018-03-07T13:45:22.306Z,10.00
2018-03-07T13:47:51.933Z,10.00
2018-03-07T13:50:23.350Z,9.90
2018-03-07T13:52:53.000Z,9.90
2018-03-07T13:55:26.040Z,9.90
2018-03-07T13:57:55.937Z,9.90
2018-03-07T14:00:28.216Z,9.90
2018-03-07T14:02:58.040Z,9.90
2018-03-07T14:05:31.669Z,9.90
2018-03-07T14:08:01.400Z,9.80
2018-03-07T14:10:35.746Z,9.70
2018-03-07T14:13:05.760Z,9.60
2018-03-07T14:15:35.961Z,9.50
2018-03-07T14:18:06.432Z,9.30
2018-03-07T14:20:38.556Z,9.30
2018-03-07T14:23:08.247Z,9.20
2018-03-07T14:25:40.890Z,9.20
2018-03-07T14:28:10.940Z,9.20
2018-03-07T14:30:44.259Z,9.30
2018-03-07T14:33:14.967Z,9.60
2018-03-07T14:35:48.138Z,9.60
2018-03-07T14:38:17.893Z,9.60
2018-03-07T14:40:50.065Z,9.50
2018-03-07T14:43:19.771Z,9.50
2018-03-07T14:45:54.187Z,9.50
2018-03-07T14:48:25.952Z,9.60
2018-03-07T14:50:56.390Z,9.50
2018-03-07T14:53:26.209Z,9.50
2018-03-07T14:55:59.019Z,9.40
2018-03-07T14:58:28.823Z,9.20
2018-03-07T15:01:00.640Z,9.20
2018-03-07T15:03:31.843Z,9.20
2018-03-07T15:06:05.278Z,9.20
2018-03-07T15:08:35.930Z,9.00
2018-03-07T15:11:06.730Z,8.90
2018-03-07T15:13:36.757Z,8.80
2018-03-07T15:16:09.642Z,8.90
2018-03-07T15:18:39.653Z,9.00
2018-03-07T15:21:12.592Z,8.90
2018-03-07T15:23:41.746Z,8.90
2018-03-07T15:26:14.146Z,8.90
2018-03-07T15:28:44.783Z,8.80
2018-03-07T15:31:18.568Z,8.70
2018-03-07T15:33:47.853Z,8.70
2018-03-07T15:36:18.994Z,8.60
2018-03-07T15:38:49.038Z,8.40
2018-03-07T15:41:22.724Z,8.50
2018-03-07T15:43:52.565Z,8.30
2018-03-07T15:46:23.724Z,8.30
2018-03-07T15:48:53.347Z,8.40
2018-03-07T15:51:26.144Z,8.40
2018-03-07T15:53:56.052Z,8.50
2018-03-07T15:56:27.887Z,8.60
2018-03-07T15:58:57.103Z,8.50
2018-03-07T16:01:31.505Z,8.40
2018-03-07T16:04:00.780Z,8.30
2018-03-07T16:06:31.714Z,8.30
2018-03-07T16:09:01.053Z,8.10
2018-03-07T16:11:34.152Z,7.90
2018-03-07T16:14:04.406Z,7.80
2018-03-07T16:16:37.792Z,7.80
2018-03-07T16:19:07.093Z,7.60
2018-03-07T16:21:41.613Z,7.40
2018-03-07T16:24:10.955Z,7.40
2018-03-07T16:26:43.588Z,7.50
2018-03-07T16:29:13.203Z,7.50
2018-03-07T16:31:49.731Z,7.50
2018-03-07T16:34:19.065Z,7.40
2018-03-07T16:36:52.136Z,7.40
2018-03-07T16:39:21.327Z,7.30
2018-03-07T16:41:53.651Z,7.30
2018-03-07T16:44:22.919Z,7.30
2018-03-07T16:46:56.005Z,7.30
2018-03-07T16:49:25.660Z,7.20
2018-03-07T16:51:59.647Z,7.20
2018-03-07T16:54:29.042Z,7.20
2018-03-07T16:57:02.409Z,7.20
2018-03-07T16:59:32.385Z,7.10
2018-03-07T17:02:04.876Z,7.00
2018-03-07T17:04:34.510Z,7.00
2018-03-07T17:07:11.228Z,7.00
2018-03-07T17:09:41.341Z,7.10
2018-03-07T17:12:11.430Z,7.00
2018-03-07T17:14:41.546Z,6.90
2018-03-07T17:17:18.152Z,6.90
2018-03-07T17:19:47.521Z,7.00
2018-03-07T17:22:18.765Z,6.90
2018-03-07T17:24:48.920Z,6.80
2018-03-07T17:27:19.068Z,6.80
2018-03-07T17:29:50.356Z,6.80
2018-03-07T17:32:22.848Z,6.80
2018-03-07T17:34:52.824Z,6.80
2018-03-07T17:37:22.740Z,6.80
2018-03-07T17:39:52.233Z,6.80
2018-03-07T17:42:25.341Z,6.90
2018-03-07T17:44:54.821Z,6.80
2018-03-07T17:47:26.844Z,6.90
2018-03-07T17:49:56.236Z,6.90
2018-03-07T17:52:31.006Z,6.90
2018-03-07T17:55:01.135Z,7.10
2018-03-07T17:57:34.846Z,7.20
2018-03-07T18:00:04.248Z,7.20
2018-03-07T18:02:36.060Z,7.40
2018-03-07T18:05:06.625Z,7.40
2018-03-07T18:07:37.866Z,7.40
2018-03-07T18:10:07.928Z,7.50
2018-03-07T18:12:40.459Z,7.50
2018-03-07T18:15:10.562Z,7.40
2018-03-07T18:17:44.437Z,7.40
2018-03-07T18:20:13.957Z,7.30
2018-03-07T18:22:47.688Z,7.30
2018-03-07T18:25:17.932Z,7.00
2018-03-07T18:27:50.481Z,7.00
2018-03-07T18:30:21.154Z,6.90
2018-03-07T18:32:53.189Z,6.90
2018-03-07T18:35:23.089Z,7.00
2018-03-07T18:37:59.660Z,7.00
2018-03-07T18:40:29.944Z,7.20
2018-03-07T18:42:59.234Z,7.10
2018-03-07T18:45:28.524Z,7.10
2018-03-07T18:48:06.194Z,7.10
2018-03-07T18:50:36.585Z,7.20
2018-03-07T18:53:05.751Z,7.20
2018-03-07T18:55:35.373Z,7.20
2018-03-07T18:58:06.661Z,7.20
2018-03-07T19:00:36.803Z,7.30
2018-03-07T19:03:10.244Z,7.30
2018-03-07T19:05:39.781Z,7.30
2018-03-07T19:08:13.417Z,7.10
2018-03-07T19:10:43.058Z,7.10
2018-03-07T19:13:15.550Z,7.10
2018-03-07T19:15:44.788Z,7.10
2018-03-07T19:18:17.582Z,7.10
2018-03-07T19:20:46.907Z,7.10
2018-03-07T19:23:19.707Z,7.00
2018-03-07T19:25:53.786Z,7.10
2018-03-07T19:28:26.265Z,7.10
2018-03-07T19:30:55.971Z,7.10
2018-03-07T19:33:25.642Z,6.90
2018-03-07T19:35:55.221Z,6.90
2018-03-07T19:38:25.720Z,6.90
2018-03-07T19:40:55.043Z,6.80
2018-03-07T19:43:28.058Z,6.80
2018-03-07T19:45:57.714Z,6.70
2018-03-07T19:48:30.582Z,6.50
2018-03-07T19:50:59.812Z,6.50
2018-03-07T19:53:32.187Z,6.40
2018-03-07T19:56:01.467Z,6.40
2018-03-07T19:58:34.585Z,6.30
2018-03-07T20:01:04.189Z,6.30
2018-03-07T20:03:36.918Z,6.30
2018-03-07T20:06:06.283Z,6.30
2018-03-07T20:08:39.273Z,6.30
2018-03-07T20:11:09.439Z,6.30
2018-03-07T20:13:40.574Z,6.30
2018-03-07T20:16:09.822Z,6.30
2018-03-07T20:18:46.986Z,6.30
2018-03-07T20:21:16.758Z,6.30
2018-03-07T20:23:46.751Z,6.40
2018-03-07T20:26:16.790Z,6.50
2018-03-07T20:28:51.096Z,6.50
2018-03-07T20:31:20.445Z,6.50
2018-03-07T20:33:53.967Z,6.40
2018-03-07T20:36:24.428Z,6.40
2018-03-07T20:38:56.970Z,6.40
2018-03-07T20:41:27.127Z,6.30
2018-03-07T20:43:59.854Z,6.30
2018-03-07T20:46:29.171Z,6.40
2018-03-07T20:49:03.126Z,6.30
2018-03-07T20:51:32.643Z,6.30
2018-03-07T20:54:05.980Z,6.30
2018-03-07T20:56:36.487Z,6.40
2018-03-07T20:59:08.763Z,6.40
2018-03-07T21:01:38.154Z,6.30
2018-03-07T21:04:16.127Z,6.30
2018-03-07T21:09:14.222Z,6.30
2018-03-07T21:11:44.129Z,6.40
2018-03-07T21:14:16.629Z,6.40
2018-03-07T21:16:46.110Z,6.40
2018-03-07T21:19:19.444Z,6.50
2018-03-07T21:21:50.351Z,6.60
2018-03-07T21:24:20.305Z,6.60
2018-03-07T21:26:49.875Z,6.70
2018-03-07T21:29:22.624Z,6.80
2018-03-07T21:31:52.123Z,6.80
2018-03-07T21:34:24.989Z,6.80
2018-03-07T21:36:54.276Z,6.70
2018-03-07T21:39:26.121Z,6.70
2018-03-07T21:41:55.569Z,6.70
2018-03-07T21:44:28.257Z,6.80
2018-03-07T21:46:58.593Z,6.80
2018-03-07T21:49:31.416Z,6.70
2018-03-07T21:52:01.670Z,6.80
2018-03-07T21:54:33.853Z,6.80
2018-03-07T21:57:03.226Z,6.70
2018-03-07T21:59:36.450Z,6.70
2018-03-07T22:02:06.330Z,6.70
2018-03-07T22:04:39.017Z,6.60
2018-03-07T22:07:08.814Z,6.60
2018-03-07T22:09:40.716Z,6.60
2018-03-07T22:12:10.788Z,6.60
2018-03-07T22:14:44.955Z,6.60
2018-03-07T22:17:14.795Z,6.60
2018-03-07T22:19:47.676Z,6.60
2018-03-07T22:22:18.172Z,6.70
2018-03-07T22:24:49.003Z,6.70
2018-03-07T22:27:18.316Z,6.70
2018-03-07T22:29:52.346Z,6.70
2018-03-07T22:32:23.658Z,6.60
2018-03-07T22:34:58.015Z,6.70
2018-03-07T22:37:27.482Z,6.70
2018-03-07T22:40:04.811Z,6.70
2018-03-07T22:42:35.048Z,6.70
2018-03-07T22:45:07.135Z,6.70
2018-03-07T22:47:36.739Z,6.60
2018-03-07T22:50:14.329Z,6.60
2018-03-07T22:52:43.778Z,6.60
2018-03-07T22:55:13.196Z,6.50
2018-03-07T22:57:43.681Z,6.50
2018-03-07T23:00:24.315Z,6.50
2018-03-07T23:02:54.736Z,6.50
2018-03-07T23:05:24.195Z,6.40
2018-03-07T23:07:53.952Z,6.40
2018-03-07T23:10:25.713Z,6.40
2018-03-07T23:12:55.057Z,6.40
2018-03-07T23:15:24.611Z,6.40
2018-03-07T23:17:56.026Z,6.40
2018-03-07T23:20:26.517Z,6.40
2018-03-07T23:22:56.072Z,6.40
2018-03-07T23:25:25.978Z,6.30
2018-03-07T23:27:55.620Z,6.40
2018-03-07T23:30:28.310Z,6.40
2018-03-07T23:32:57.847Z,6.40
2018-03-07T23:35:31.527Z,6.40
2018-03-07T23:38:00.886Z,6.50
2018-03-07T23:40:34.307Z,6.40
2018-03-07T23:43:03.733Z,6.40
2018-03-07T23:45:34.886Z,6.30
2018-03-07T23:48:04.683Z,6.30
2018-03-07T23:50:39.608Z,6.20
2018-03-07T23:53:09.179Z,6.20
2018-03-07T23:55:40.082Z,6.10
2018-03-07T23:58:09.697Z,6.10
